This is the latest recevied weather packets stored in our database for station/object AA7VG. If no packets are shown the sender has not sent any weather packets the latest 1 day(s).
| Time | Temp. | Humidity | Pressure | Rain* | Wind** | Luminosity | Snow |
|---|---|---|---|---|---|---|---|
| 1778050949 | 0° C | 68% | 1018.4 hPa | 0 mm | 0 m/s | - | - |
| 1778050647 | 0° C | 67% | 1018.4 hPa | 0 mm | 0 m/s | - | - |
| 1778050344 | 0.56° C | 66% | 1018.4 hPa | 0 mm | 0 m/s | - | - |
| 1778050041 | 0.56° C | 67% | 1018.4 hPa | 0 mm | 0 m/s | - | - |
| 1778049736 | 0.56° C | 67% | 1018.6 hPa | 0 mm | 0 m/s | - | - |
| 1778049434 | 1.11° C | 64% | 1018.4 hPa | 0 mm | 0 m/s | - | - |
| 1778049131 | 1.67° C | 60% | 1018.6 hPa | 0 mm | 0.89 m/s, 169° | - | - |
| 1778048830 | 1.67° C | 59% | 1018.4 hPa | 0 mm | 0 m/s | - | - |
| 1778048526 | 1.67° C | 58% | 1018.3 hPa | 0 mm | 0 m/s | - | - |
| 1778048222 | 1.67° C | 59% | 1018.4 hPa | 0 mm | 0 m/s | - | - |
| 1778047920 | 1.67° C | 58% | 1018.3 hPa | 0 mm | 0 m/s | - | - |
| 1778047619 | 1.67° C | 57% | 1018.3 hPa | 0 mm | 0 m/s | - | - |
| 1778047315 | 1.11° C | 58% | 1018.4 hPa | 0 mm | 0 m/s | - | - |
| 1778047012 | 1.11° C | 58% | 1018.3 hPa | 0 mm | 0 m/s | - | - |
| 1778046709 | 1.11° C | 59% | 1018.6 hPa | 0 mm | 0 m/s | - | - |
| 1778046406 | 1.11° C | 58% | 1018.7 hPa | 0 mm | 0 m/s | - | - |
| 1778046102 | 0.56° C | 60% | 1018.6 hPa | 0 mm | 0.45 m/s, 56° | - | - |
| 1778045800 | 0.56° C | 60% | 1018.6 hPa | 0 mm | 0 m/s | - | - |
| 1778045498 | 0.56° C | 60% | 1018.6 hPa | 0 mm | 0 m/s | - | - |
| 1778045196 | 0.56° C | 59% | 1018.5 hPa | 0 mm | 0 m/s | - | - |
| 1778044894 | 0.56° C | 58% | 1018.3 hPa | 0 mm | 0 m/s | - | - |
| 1778044591 | 0.56° C | 58% | 1018.6 hPa | 0 mm | 0 m/s | - | - |
| 1778044287 | 0.56° C | 59% | 1018.6 hPa | 0 mm | 0 m/s | - | - |
| 1778043985 | 0.56° C | 58% | 1018.4 hPa | 0 mm | 0 m/s | - | - |
| 1778043682 | 1.11° C | 57% | 1018.4 hPa | 0 mm | 0 m/s | - | - |
* Rain latest hour (hover to see other rain measurements)
** Current wind speed in m/s (hover to see current wind gust speed)